Time;durP1;ratioP1;P1;durP2;ratioP2;P2;SDS_P1;SDS_P2;PMS_P1;PMS_P2;Temp;Humidity;BMP_temperature;BMP_pressure;BME280_temperature;BME280_humidity;BME280_pressure;Samples;Min_cycle;Max_cycle;Signal;HPM_P1;HPM_P2
2024/04/12 00:00:59;;;;;;;5.15;3.05;;;;;;;;;;5352615;26;20018;-62
2024/04/12 00:03:26;;;;;;;2.80;2.38;;;;;;;;;;5350718;26;20022;-63
2024/04/12 00:05:54;;;;;;;3.72;2.53;;;;;;;;;;5343386;26;20635;-62
2024/04/12 00:08:21;;;;;;;2.85;2.20;;;;;;;;;;5343750;26;20754;-63
2024/04/12 00:10:47;;;;;;;2.30;2.10;;;;;;;;;;5347017;26;20362;-63
2024/04/12 00:13:13;;;;;;;4.88;1.95;;;;;;;;;;5343071;26;20531;-62
2024/04/12 00:15:42;;;;;;;6.80;2.40;;;;;;;;;;5346891;26;20036;-62
2024/04/12 00:18:08;;;;;;;2.42;1.90;;;;;;;;;;5346661;26;20012;-63
2024/04/12 00:20:35;;;;;;;8.10;2.38;;;;;;;;;;5349668;26;20004;-69
2024/04/12 00:23:02;;;;;;;2.38;2.17;;;;;;;;;;5349795;26;20066;-69
2024/04/12 00:25:29;;;;;;;6.57;2.60;;;;;;;;;;5350672;26;20013;-69
2024/04/12 00:27:56;;;;;;;2.45;2.00;;;;;;;;;;5364060;26;20566;-69
2024/04/12 00:30:39;;;;;;;4.78;2.40;;;;;;;;;;5361525;26;20486;-69
2024/04/12 00:33:11;;;;;;;3.25;2.00;;;;;;;;;;5352290;26;20068;-62
2024/04/12 00:35:40;;;;;;;2.20;2.00;;;;;;;;;;5350252;26;20033;-63
2024/04/12 00:38:11;;;;;;;2.40;2.05;;;;;;;;;;5346415;26;20824;-63
2024/04/12 00:40:41;;;;;;;3.25;2.05;;;;;;;;;;5354533;26;20411;-63
2024/04/12 00:43:11;;;;;;;2.58;2.05;;;;;;;;;;5343085;26;20065;-63
2024/04/12 00:45:52;;;;;;;2.75;2.08;;;;;;;;;;5350500;26;19996;-62
2024/04/12 00:48:21;;;;;;;3.58;1.95;;;;;;;;;;5341480;26;20074;-63
2024/04/12 00:50:50;;;;;;;3.85;2.00;;;;;;;;;;5342923;26;20082;-63
2024/04/12 00:53:28;;;;;;;3.00;2.53;;;;;;;;;;5351199;26;20089;-62
2024/04/12 00:56:03;;;;;;;3.35;2.03;;;;;;;;;;5334648;26;20086;-62
2024/04/12 00:58:32;;;;;;;3.42;1.85;;;;;;;;;;5378680;26;20082;-62
2024/04/12 01:01:15;;;;;;;4.25;1.85;;;;;;;;;;5345471;26;20004;-62
2024/04/12 01:03:55;;;;;;;4.60;2.05;;;;;;;;;;5343328;26;20779;-62
2024/04/12 01:06:26;;;;;;;3.20;2.00;;;;;;;;;;5343766;26;20420;-62
2024/04/12 01:08:54;;;;;;;4.43;2.60;;;;;;;;;;5348383;26;20004;-62
2024/04/12 01:11:21;;;;;;;5.10;2.75;;;;;;;;;;5350806;26;20806;-63
2024/04/12 01:13:48;;;;;;;4.90;2.40;;;;;;;;;;5338461;26;20001;-62
2024/04/12 01:16:15;;;;;;;3.58;2.22;;;;;;;;;;5341421;26;20583;-62
2024/04/12 01:18:44;;;;;;;2.10;1.90;;;;;;;;;;5336857;26;20787;-62
2024/04/12 01:21:11;;;;;;;6.20;2.38;;;;;;;;;;5348997;26;20374;-62
2024/04/12 01:23:38;;;;;;;2.50;2.30;;;;;;;;;;5348024;26;20620;-63
2024/04/12 01:26:05;;;;;;;2.50;2.17;;;;;;;;;;5338550;26;20529;-63
2024/04/12 01:28:35;;;;;;;5.25;3.20;;;;;;;;;;5342386;26;20321;-63
2024/04/12 01:31:01;;;;;;;2.35;2.10;;;;;;;;;;5341121;26;20075;-64
2024/04/12 01:33:27;;;;;;;4.65;2.40;;;;;;;;;;5340652;26;20008;-62
2024/04/12 01:35:55;;;;;;;5.25;2.45;;;;;;;;;;5347711;26;20495;-62
2024/04/12 01:38:21;;;;;;;4.05;2.67;;;;;;;;;;5343991;26;20007;-62
2024/04/12 01:40:57;;;;;;;2.63;2.42;;;;;;;;;;5341402;26;20448;-62
2024/04/12 01:43:27;;;;;;;3.25;2.92;;;;;;;;;;5342088;26;20346;-63
2024/04/12 01:45:54;;;;;;;3.28;2.30;;;;;;;;;;5337183;26;20456;-63
2024/04/12 01:48:25;;;;;;;2.30;2.10;;;;;;;;;;5342765;26;20064;-63
2024/04/12 01:50:51;;;;;;;5.97;2.53;;;;;;;;;;5343648;26;20012;-63
2024/04/12 01:53:21;;;;;;;2.65;2.22;;;;;;;;;;5340592;26;20235;-62
2024/04/12 01:55:50;;;;;;;2.95;2.38;;;;;;;;;;5345364;26;20083;-62
2024/04/12 01:58:19;;;;;;;3.85;2.40;;;;;;;;;;5339792;26;20011;-62
2024/04/12 02:00:46;;;;;;;3.67;2.35;;;;;;;;;;5340518;26;20453;-62
2024/04/12 02:03:13;;;;;;;5.15;2.83;;;;;;;;;;5334375;26;20008;-63
2024/04/12 02:05:39;;;;;;;2.38;2.05;;;;;;;;;;5331152;26;20461;-62
2024/04/12 02:08:16;;;;;;;3.53;2.30;;;;;;;;;;5326997;26;19996;-62
2024/04/12 02:10:44;;;;;;;6.07;2.63;;;;;;;;;;5343028;26;20494;-63
2024/04/12 02:13:17;;;;;;;3.22;2.22;;;;;;;;;;5347457;26;20004;-62
2024/04/12 02:15:43;;;;;;;5.45;2.35;;;;;;;;;;5324116;26;20387;-63
2024/04/12 02:18:13;;;;;;;3.28;2.38;;;;;;;;;;5338173;26;20005;-62
2024/04/12 02:20:44;;;;;;;2.95;2.30;;;;;;;;;;5344070;26;20001;-62
2024/04/12 02:23:14;;;;;;;4.75;3.00;;;;;;;;;;5343207;26;19993;-63
2024/04/12 02:25:41;;;;;;;3.30;2.50;;;;;;;;;;5337936;26;20464;-62
2024/04/12 02:28:09;;;;;;;2.50;2.15;;;;;;;;;;5341896;26;20004;-63
2024/04/12 02:30:41;;;;;;;3.58;1.80;;;;;;;;;;5341840;26;20748;-63
2024/04/12 02:33:16;;;;;;;3.15;2.38;;;;;;;;;;5344642;26;20000;-62
2024/04/12 02:35:42;;;;;;;3.10;2.10;;;;;;;;;;5347923;26;20073;-62
2024/04/12 02:38:09;;;;;;;5.25;2.13;;;;;;;;;;5331712;26;20322;-63
2024/04/12 02:40:38;;;;;;;3.08;2.10;;;;;;;;;;5339716;26;20004;-63
2024/04/12 02:43:05;;;;;;;6.78;2.45;;;;;;;;;;5334190;26;20468;-62
2024/04/12 02:45:33;;;;;;;4.15;2.35;;;;;;;;;;5352475;26;21570;-62
2024/04/12 02:47:59;;;;;;;3.80;2.03;;;;;;;;;;5346500;26;20859;-62
2024/04/12 02:50:27;;;;;;;2.83;2.05;;;;;;;;;;5344413;26;20008;-62
2024/04/12 02:52:54;;;;;;;2.72;2.05;;;;;;;;;;5339640;26;20441;-62
2024/04/12 02:55:21;;;;;;;3.55;2.05;;;;;;;;;;5353988;26;20008;-62
2024/04/12 02:57:47;;;;;;;2.38;2.17;;;;;;;;;;5339311;26;20383;-62
2024/04/12 03:00:23;;;;;;;2.75;2.33;;;;;;;;;;5348781;26;19996;-62
2024/04/12 03:02:51;;;;;;;2.95;1.88;;;;;;;;;;5336066;26;20077;-63
2024/04/12 03:05:17;;;;;;;3.15;2.05;;;;;;;;;;5352537;26;19996;-62
2024/04/12 03:07:46;;;;;;;4.22;1.92;;;;;;;;;;5350588;26;20009;-63
2024/04/12 03:10:18;;;;;;;2.33;2.13;;;;;;;;;;5341270;26;20013;-63
2024/04/12 03:12:44;;;;;;;3.20;2.00;;;;;;;;;;5347457;26;20001;-62
2024/04/12 03:15:10;;;;;;;2.22;2.03;;;;;;;;;;5341804;26;20012;-63
2024/04/12 03:17:37;;;;;;;2.40;1.77;;;;;;;;;;5347155;26;20288;-63
2024/04/12 03:20:03;;;;;;;11.80;2.50;;;;;;;;;;5343890;26;20001;-63
2024/04/12 03:22:30;;;;;;;2.10;1.75;;;;;;;;;;5344531;26;20008;-62
2024/04/12 03:24:56;;;;;;;2.72;1.80;;;;;;;;;;5345922;26;20265;-63
2024/04/12 03:27:22;;;;;;;3.53;1.80;;;;;;;;;;5343425;26;20003;-63
2024/04/12 03:29:49;;;;;;;7.53;1.90;;;;;;;;;;5338935;26;20329;-63
2024/04/12 03:32:15;;;;;;;2.75;1.70;;;;;;;;;;5346340;26;20004;-62
2024/04/12 03:34:42;;;;;;;2.08;1.83;;;;;;;;;;5341061;26;20008;-63
2024/04/12 03:37:23;;;;;;;2.80;1.83;;;;;;;;;;5381660;26;20013;-63
2024/04/12 03:40:00;;;;;;;1.85;1.70;;;;;;;;;;5352572;26;20032;-62
2024/04/12 03:42:28;;;;;;;1.90;1.80;;;;;;;;;;5341530;26;20004;-62
2024/04/12 03:44:58;;;;;;;3.03;2.03;;;;;;;;;;5338612;26;20018;-62
2024/04/12 03:47:27;;;;;;;2.22;1.67;;;;;;;;;;5352155;26;20163;-62
2024/04/12 03:49:53;;;;;;;7.97;1.80;;;;;;;;;;5346603;26;20340;-62
2024/04/12 03:52:20;;;;;;;3.05;2.08;;;;;;;;;;5342783;26;19996;-63
2024/04/12 03:54:47;;;;;;;3.00;1.77;;;;;;;;;;5347672;26;20472;-62
2024/04/12 03:57:13;;;;;;;1.80;1.70;;;;;;;;;;5338218;26;20336;-62
2024/04/12 03:59:43;;;;;;;3.22;1.95;;;;;;;;;;5344599;26;20400;-63
2024/04/12 04:02:09;;;;;;;2.35;2.15;;;;;;;;;;5336623;26;20015;-62
2024/04/12 04:04:44;;;;;;;4.57;1.80;;;;;;;;;;5344413;26;20012;-62
2024/04/12 04:07:14;;;;;;;1.85;1.60;;;;;;;;;;5335495;26;19993;-63
2024/04/12 04:09:42;;;;;;;5.63;2.15;;;;;;;;;;5338598;26;20004;-62
2024/04/12 04:12:12;;;;;;;2.22;1.70;;;;;;;;;;5341045;26;20020;-62
2024/04/12 04:14:47;;;;;;;7.47;2.15;;;;;;;;;;5340488;26;20890;-62
2024/04/12 04:17:13;;;;;;;2.50;1.95;;;;;;;;;;5356438;26;20445;-62
2024/04/12 04:19:41;;;;;;;3.72;2.38;;;;;;;;;;5340254;26;20091;-63
2024/04/12 04:22:21;;;;;;;5.55;2.10;;;;;;;;;;5337013;26;20016;-62
2024/04/12 04:24:48;;;;;;;4.50;2.00;;;;;;;;;;5334217;26;20020;-63
2024/04/12 04:27:15;;;;;;;2.15;1.95;;;;;;;;;;5342681;26;20505;-63
2024/04/12 04:29:45;;;;;;;5.55;2.10;;;;;;;;;;5343585;26;20504;-62
2024/04/12 04:32:11;;;;;;;1.70;1.60;;;;;;;;;;5349655;26;20373;-62
2024/04/12 04:34:37;;;;;;;4.65;2.40;;;;;;;;;;5350526;26;20403;-63
2024/04/12 04:37:05;;;;;;;3.55;1.83;;;;;;;;;;5343241;26;20052;-63
2024/04/12 04:39:32;;;;;;;1.55;1.45;;;;;;;;;;5347816;26;20392;-62
2024/04/12 04:41:59;;;;;;;2.22;1.98;;;;;;;;;;5344398;26;20005;-63
2024/04/12 04:44:25;;;;;;;5.40;1.90;;;;;;;;;;5343696;26;20384;-63
2024/04/12 04:46:56;;;;;;;1.70;1.60;;;;;;;;;;5332181;26;20012;-64
2024/04/12 04:49:25;;;;;;;2.33;2.00;;;;;;;;;;5334707;26;20382;-63
2024/04/12 04:51:51;;;;;;;1.63;1.52;;;;;;;;;;5350092;26;20008;-63
2024/04/12 04:54:21;;;;;;;1.88;1.77;;;;;;;;;;5340379;26;20016;-62
2024/04/12 04:56:48;;;;;;;2.17;1.67;;;;;;;;;;5345197;26;20560;-63
2024/04/12 04:59:18;;;;;;;1.85;1.75;;;;;;;;;;5346045;26;20001;-62
2024/04/12 05:01:48;;;;;;;2.60;2.40;;;;;;;;;;5344578;26;20007;-62
2024/04/12 05:04:15;;;;;;;1.70;1.60;;;;;;;;;;5341599;26;19998;-62
2024/04/12 05:06:42;;;;;;;5.03;2.05;;;;;;;;;;5343764;26;20401;-62
2024/04/12 05:09:12;;;;;;;1.70;1.60;;;;;;;;;;5342203;26;20005;-62
2024/04/12 05:11:39;;;;;;;2.30;1.83;;;;;;;;;;5341080;26;20012;-65
2024/04/12 05:14:13;;;;;;;3.13;1.58;;;;;;;;;;5347492;26;20422;-62
2024/04/12 05:16:43;;;;;;;2.40;1.63;;;;;;;;;;5342822;26;20531;-62
2024/04/12 05:19:10;;;;;;;3.85;2.50;;;;;;;;;;5347805;26;20493;-63
2024/04/12 05:21:44;;;;;;;1.92;1.75;;;;;;;;;;5348616;26;20503;-63
2024/04/12 05:24:11;;;;;;;3.85;2.15;;;;;;;;;;5344464;26;20389;-63
2024/04/12 05:26:41;;;;;;;2.80;1.55;;;;;;;;;;5336418;26;20008;-62
2024/04/12 05:29:11;;;;;;;2.92;2.08;;;;;;;;;;5342595;26;20020;-62
2024/04/12 05:31:38;;;;;;;2.58;2.38;;;;;;;;;;5338544;26;20494;-63
2024/04/12 05:34:05;;;;;;;2.40;2.00;;;;;;;;;;5344565;26;19992;-63
2024/04/12 05:36:33;;;;;;;2.70;1.73;;;;;;;;;;5345503;26;20012;-62
2024/04/12 05:39:08;;;;;;;2.92;1.88;;;;;;;;;;5346658;26;19997;-63
2024/04/12 05:41:38;;;;;;;2.00;1.80;;;;;;;;;;5350680;26;20082;-63
2024/04/12 05:44:09;;;;;;;1.67;1.58;;;;;;;;;;5344113;26;20059;-62
2024/04/12 05:46:39;;;;;;;1.45;1.38;;;;;;;;;;5346961;26;20405;-62
2024/04/12 05:49:11;;;;;;;3.03;1.67;;;;;;;;;;5344782;26;20016;-63
2024/04/12 05:51:41;;;;;;;1.75;1.55;;;;;;;;;;5340750;26;20025;-62
2024/04/12 05:54:10;;;;;;;3.97;1.77;;;;;;;;;;5341335;26;20028;-63
2024/04/12 05:56:40;;;;;;;2.20;1.70;;;;;;;;;;5343293;26;20344;-62
2024/04/12 05:59:13;;;;;;;1.80;1.70;;;;;;;;;;5346608;26;20008;-62
2024/04/12 06:01:43;;;;;;;1.77;1.67;;;;;;;;;;5339690;26;20036;-62
2024/04/12 06:04:10;;;;;;;2.75;1.88;;;;;;;;;;5352930;26;20008;-62
2024/04/12 06:06:42;;;;;;;5.45;2.15;;;;;;;;;;5351964;26;20052;-63
2024/04/12 06:09:19;;;;;;;2.78;1.70;;;;;;;;;;5347816;26;20043;-62
2024/04/12 06:11:45;;;;;;;2.70;1.58;;;;;;;;;;5350682;26;20409;-63
2024/04/12 06:14:13;;;;;;;4.65;2.25;;;;;;;;;;5338299;26;20005;-64
2024/04/12 06:16:40;;;;;;;1.75;1.50;;;;;;;;;;5346887;26;20015;-70
2024/04/12 06:19:06;;;;;;;1.58;1.30;;;;;;;;;;5344311;26;20010;-63
2024/04/12 06:21:36;;;;;;;4.63;2.08;;;;;;;;;;5348536;26;20328;-71
2024/04/12 06:24:08;;;;;;;1.25;1.20;;;;;;;;;;5353852;26;20019;-70
2024/04/12 06:26:39;;;;;;;3.60;1.75;;;;;;;;;;5352795;26;20330;-71
2024/04/12 06:29:09;;;;;;;3.40;1.77;;;;;;;;;;5350520;26;19997;-64
2024/04/12 06:31:35;;;;;;;2.00;1.90;;;;;;;;;;5352943;26;20007;-72
2024/04/12 06:34:05;;;;;;;5.65;1.75;;;;;;;;;;5376197;26;20149;-65
2024/04/12 06:36:34;;;;;;;1.50;1.40;;;;;;;;;;5343632;26;20072;-68
2024/04/12 06:39:04;;;;;;;4.45;1.98;;;;;;;;;;5340515;26;20012;-70
2024/04/12 06:41:33;;;;;;;1.75;1.65;;;;;;;;;;5346034;26;20535;-68
2024/04/12 06:43:59;;;;;;;1.70;1.60;;;;;;;;;;5346632;26;20008;-69
2024/04/12 06:46:27;;;;;;;1.60;1.50;;;;;;;;;;5351074;26;20009;-68
2024/04/12 06:49:07;;;;;;;1.85;1.48;;;;;;;;;;5358481;26;20483;-69
2024/04/12 06:52:02;;;;;;;3.88;1.55;;;;;;;;;;5345848;26;19993;-63
2024/04/12 06:54:23;;;;;;;1.48;1.38;;;;;;;;;;5341232;26;20008;-63
2024/04/12 06:56:50;;;;;;;2.13;1.92;;;;;;;;;;5353946;26;20001;-62
2024/04/12 06:59:18;;;;;;;1.95;1.85;;;;;;;;;;5342378;26;20669;-67
2024/04/12 07:01:44;;;;;;;1.70;1.58;;;;;;;;;;5350623;26;20036;-70
2024/04/12 07:04:10;;;;;;;1.98;1.60;;;;;;;;;;5377408;26;20602;-72
2024/04/12 07:06:37;;;;;;;1.50;1.40;;;;;;;;;;5394700;26;20008;-63
2024/04/12 07:09:08;;;;;;;4.50;2.10;;;;;;;;;;5351869;26;20012;-62
2024/04/12 07:11:42;;;;;;;3.45;1.77;;;;;;;;;;5348891;26;20390;-62
2024/04/12 07:14:08;;;;;;;3.90;1.60;;;;;;;;;;5355133;26;20517;-62
2024/04/12 07:16:35;;;;;;;3.58;1.60;;;;;;;;;;5346903;26;20113;-62
2024/04/12 07:19:08;;;;;;;1.30;1.25;;;;;;;;;;5351736;26;20040;-63
2024/04/12 07:21:35;;;;;;;1.63;1.45;;;;;;;;;;5342633;26;20000;-62
2024/04/12 07:24:06;;;;;;;1.42;1.40;;;;;;;;;;5347376;26;20378;-62
2024/04/12 07:26:32;;;;;;;2.78;1.77;;;;;;;;;;5357939;26;20004;-62
2024/04/12 07:29:00;;;;;;;2.45;1.75;;;;;;;;;;5353904;26;20001;-62
2024/04/12 07:31:27;;;;;;;3.15;1.80;;;;;;;;;;5356348;26;19993;-63
2024/04/12 07:33:59;;;;;;;2.05;1.63;;;;;;;;;;5346736;26;20001;-62
2024/04/12 07:36:30;;;;;;;1.80;1.50;;;;;;;;;;5350072;26;20001;-63
2024/04/12 07:39:01;;;;;;;6.07;2.65;;;;;;;;;;5357523;26;20076;-62
2024/04/12 07:41:27;;;;;;;4.43;1.92;;;;;;;;;;5351678;26;20004;-63
2024/04/12 07:43:55;;;;;;;1.60;1.42;;;;;;;;;;5358067;26;20001;-63
2024/04/12 07:46:27;;;;;;;2.13;1.52;;;;;;;;;;5355412;26;20067;-64
2024/04/12 07:48:57;;;;;;;3.72;1.95;;;;;;;;;;5361687;26;20019;-63
2024/04/12 07:51:31;;;;;;;3.08;1.70;;;;;;;;;;5354884;26;19997;-63
2024/04/12 07:54:03;;;;;;;4.97;1.50;;;;;;;;;;5350906;26;20429;-62
2024/04/12 07:56:43;;;;;;;1.23;1.23;;;;;;;;;;5334758;26;20004;-63
2024/04/12 08:02:08;;;;;;;3.75;1.77;;;;;;;;;;5338916;26;20412;-63
2024/04/12 08:04:37;;;;;;;2.97;1.52;;;;;;;;;;5331675;26;20008;-64
2024/04/12 08:07:13;;;;;;;1.95;1.70;;;;;;;;;;5343068;26;20035;-64
2024/04/12 08:09:46;;;;;;;1.90;1.80;;;;;;;;;;5338925;26;20074;-64
2024/04/12 08:12:17;;;;;;;2.60;1.73;;;;;;;;;;5352791;26;20001;-63
2024/04/12 08:14:53;;;;;;;1.83;1.50;;;;;;;;;;5355514;26;19997;-65
2024/04/12 08:17:27;;;;;;;1.98;1.50;;;;;;;;;;5349566;26;20313;-64
2024/04/12 08:19:57;;;;;;;3.00;1.92;;;;;;;;;;5353745;26;20000;-63
2024/04/12 08:22:27;;;;;;;6.45;2.40;;;;;;;;;;5351089;26;20000;-64
2024/04/12 08:24:53;;;;;;;5.30;1.83;;;;;;;;;;5348011;26;20407;-63
2024/04/12 08:27:24;;;;;;;1.90;1.60;;;;;;;;;;5355868;26;20015;-63
2024/04/12 08:29:50;;;;;;;2.20;2.10;;;;;;;;;;5355830;26;20012;-65
2024/04/12 08:32:19;;;;;;;1.65;1.50;;;;;;;;;;5354722;26;20000;-63
2024/04/12 08:34:48;;;;;;;2.28;1.50;;;;;;;;;;5349957;26;19996;-69
2024/04/12 08:37:16;;;;;;;1.70;1.50;;;;;;;;;;5347243;26;20005;-69
2024/04/12 08:39:45;;;;;;;3.55;1.70;;;;;;;;;;5352376;26;19993;-69
2024/04/12 08:42:18;;;;;;;4.20;1.70;;;;;;;;;;5348402;26;19993;-69
2024/04/12 08:44:44;;;;;;;5.93;1.70;;;;;;;;;;5357558;26;19992;-69
2024/04/12 08:50:06;;;;;;;5.07;1.55;;;;;;;;;;5347624;26;20008;-69
2024/04/12 08:52:47;;;;;;;3.72;1.58;;;;;;;;;;5357870;26;20016;-69
2024/04/12 08:55:14;;;;;;;3.13;1.77;;;;;;;;;;5396876;26;20004;-69
2024/04/12 08:57:44;;;;;;;1.85;1.75;;;;;;;;;;5345570;26;20459;-68
2024/04/12 09:00:21;;;;;;;1.52;1.42;;;;;;;;;;5351840;26;19997;-69
2024/04/12 09:03:02;;;;;;;4.65;1.60;;;;;;;;;;5347771;26;20004;-68
2024/04/12 09:05:28;;;;;;;2.15;1.55;;;;;;;;;;5336788;26;21408;-69
2024/04/12 09:07:58;;;;;;;4.95;1.95;;;;;;;;;;5356441;26;20434;-70
2024/04/12 09:10:25;;;;;;;4.18;2.03;;;;;;;;;;5346850;26;20012;-69
2024/04/12 09:12:52;;;;;;;4.10;1.60;;;;;;;;;;5358731;26;20071;-70
2024/04/12 09:15:24;;;;;;;3.20;1.70;;;;;;;;;;5345999;26;20000;-69
2024/04/12 09:17:59;;;;;;;2.83;1.60;;;;;;;;;;5365202;26;20000;-69
2024/04/12 09:20:35;;;;;;;2.95;1.55;;;;;;;;;;5356716;26;20000;-69
2024/04/12 09:23:14;;;;;;;6.03;2.20;;;;;;;;;;5341611;26;20527;-69
2024/04/12 09:25:54;;;;;;;7.72;1.98;;;;;;;;;;5342489;26;20502;-69
2024/04/12 09:28:27;;;;;;;2.63;1.60;;;;;;;;;;5351237;26;20004;-69
2024/04/12 09:33:39;;;;;;;2.15;1.58;;;;;;;;;;5355233;26;20364;-69
2024/04/12 09:36:15;;;;;;;3.40;1.98;;;;;;;;;;5347317;26;20004;-69
2024/04/12 09:38:40;;;;;;;;;;;;;;;;;;5337337;26;20054;-69
2024/04/12 09:41:28;;;;;;;1.70;1.60;;;;;;;;;;5348821;26;19925;-70
2024/04/12 09:44:00;;;;;;;8.25;2.08;;;;;;;;;;5343060;26;20008;-70
2024/04/12 10:37:23;;;;;;;6.05;1.70;;;;;;;;;;5355882;26;20000;-63
2024/04/12 10:39:44;;;;;;;5.05;2.10;;;;;;;;;;5330310;26;20078;-63
2024/04/12 10:42:13;;;;;;;4.63;2.30;;;;;;;;;;5355325;26;20004;-63
2024/04/12 10:44:46;;;;;;;2.20;1.63;;;;;;;;;;5346862;26;19997;-63
2024/04/12 10:47:12;;;;;;;3.13;2.22;;;;;;;;;;5346841;26;20539;-63
2024/04/12 10:49:43;;;;;;;2.60;1.75;;;;;;;;;;5335545;26;20324;-63
2024/04/12 10:52:13;;;;;;;5.43;2.10;;;;;;;;;;5336714;26;20036;-63
2024/04/12 10:54:43;;;;;;;9.23;2.20;;;;;;;;;;5334899;26;20306;-64
2024/04/12 10:57:13;;;;;;;5.40;1.73;;;;;;;;;;5343269;26;20375;-63
2024/04/12 10:59:43;;;;;;;2.13;1.65;;;;;;;;;;5334408;26;20001;-63
2024/04/12 11:02:13;;;;;;;4.20;1.70;;;;;;;;;;5336560;26;20038;-63
2024/04/12 11:07:24;;;;;;;6.87;2.27;;;;;;;;;;5340279;26;20007;-62
2024/04/12 11:10:03;;;;;;;1.65;1.58;;;;;;;;;;5340347;26;20245;-62
2024/04/12 11:12:39;;;;;;;1.90;1.48;;;;;;;;;;5362082;26;20009;-62
2024/04/12 11:31:52;;;;;;;2.58;1.65;;;;;;;;;;5375272;26;20631;-62
2024/04/12 11:34:24;;;;;;;1.85;1.42;;;;;;;;;;5384969;26;19996;-62
2024/04/12 11:37:06;;;;;;;3.28;1.80;;;;;;;;;;5376212;26;20468;-62
2024/04/12 11:39:35;;;;;;;5.72;2.08;;;;;;;;;;5371848;26;20004;-62
2024/04/12 11:42:03;;;;;;;1.63;1.52;;;;;;;;;;5365724;26;20000;-63
2024/04/12 11:44:29;;;;;;;4.03;1.80;;;;;;;;;;5368596;26;20014;-63
2024/04/12 11:46:56;;;;;;;5.10;2.53;;;;;;;;;;5356141;26;20011;-64
2024/04/12 11:49:28;;;;;;;1.75;1.65;;;;;;;;;;5363302;26;20060;-62
2024/04/12 11:51:58;;;;;;;1.70;1.60;;;;;;;;;;5369276;26;19995;-63
2024/04/12 11:54:29;;;;;;;5.50;2.10;;;;;;;;;;5363913;26;20009;-66
2024/04/12 11:57:05;;;;;;;2.13;2.03;;;;;;;;;;5387654;26;20014;-62
2024/04/12 11:59:34;;;;;;;2.10;1.90;;;;;;;;;;5345270;26;20009;-63
2024/04/12 12:02:04;;;;;;;1.45;1.40;;;;;;;;;;5377499;26;20070;-64
2024/04/12 12:04:30;;;;;;;6.00;1.98;;;;;;;;;;5373739;26;20000;-68
2024/04/12 12:06:59;;;;;;;2.83;1.70;;;;;;;;;;5351215;26;20012;-67
2024/04/12 12:09:31;;;;;;;1.50;1.40;;;;;;;;;;5371644;26;19997;-67
2024/04/12 12:11:57;;;;;;;4.38;2.28;;;;;;;;;;5380264;26;20110;-67
2024/04/12 12:14:27;;;;;;;2.70;2.38;;;;;;;;;;5376028;26;20565;-67
2024/04/12 12:16:57;;;;;;;3.92;1.80;;;;;;;;;;5382619;26;20000;-67
2024/04/12 12:19:23;;;;;;;2.42;1.60;;;;;;;;;;5379769;26;20044;-67
2024/04/12 12:21:50;;;;;;;7.10;1.90;;;;;;;;;;5368919;26;20342;-68
2024/04/12 12:24:16;;;;;;;3.47;1.70;;;;;;;;;;5377108;26;20012;-68
2024/04/12 12:26:43;;;;;;;1.80;1.70;;;;;;;;;;5385820;26;20456;-68
2024/04/12 12:29:10;;;;;;;4.10;1.88;;;;;;;;;;5388854;26;20000;-68
2024/04/12 12:31:36;;;;;;;4.25;1.98;;;;;;;;;;5374519;26;20430;-66
2024/04/12 12:34:04;;;;;;;3.47;1.55;;;;;;;;;;5380932;26;20003;-67
2024/04/12 12:36:33;;;;;;;1.70;1.60;;;;;;;;;;5376815;26;20133;-68
2024/04/12 12:39:00;;;;;;;1.50;1.42;;;;;;;;;;5381144;26;20467;-68
2024/04/12 12:41:27;;;;;;;2.22;1.67;;;;;;;;;;5379012;26;20000;-67
2024/04/12 12:43:53;;;;;;;3.00;1.85;;;;;;;;;;5388140;26;20012;-68
2024/04/12 12:46:24;;;;;;;4.88;2.83;;;;;;;;;;5375814;26;20083;-67
2024/04/12 12:48:52;;;;;;;4.00;2.20;;;;;;;;;;5370187;26;19997;-68
2024/04/12 12:51:26;;;;;;;3.60;2.45;;;;;;;;;;5371636;26;20012;-67
2024/04/12 12:53:55;;;;;;;2.05;1.60;;;;;;;;;;5373166;26;19992;-67
2024/04/12 12:56:21;;;;;;;1.52;1.42;;;;;;;;;;5397946;26;20297;-70
2024/04/12 12:58:48;;;;;;;3.80;2.70;;;;;;;;;;5373605;26;20517;-70
2024/04/12 13:01:17;;;;;;;4.03;1.70;;;;;;;;;;5368903;26;20007;-68
2024/04/12 13:03:47;;;;;;;3.88;1.90;;;;;;;;;;5387887;26;20056;-70
2024/04/12 13:06:22;;;;;;;3.75;1.92;;;;;;;;;;5379263;26;20012;-69
2024/04/12 13:08:49;;;;;;;2.17;1.90;;;;;;;;;;5374186;26;19991;-69
2024/04/12 13:11:25;;;;;;;2.17;1.50;;;;;;;;;;5371598;26;20015;-68
2024/04/12 13:13:52;;;;;;;1.27;1.27;;;;;;;;;;5380154;26;20379;-68
2024/04/12 13:16:18;;;;;;;1.65;1.55;;;;;;;;;;5376548;26;20004;-68
2024/04/12 13:18:45;;;;;;;6.22;2.35;;;;;;;;;;5372588;26;20004;-69
2024/04/12 13:21:12;;;;;;;2.28;1.70;;;;;;;;;;5375204;26;20047;-70
2024/04/12 13:23:39;;;;;;;3.83;1.70;;;;;;;;;;5383166;26;20031;-68
2024/04/12 13:26:06;;;;;;;2.30;1.65;;;;;;;;;;5370669;26;20425;-69
2024/04/12 13:28:33;;;;;;;2.85;1.75;;;;;;;;;;5377499;26;20029;-70
2024/04/12 13:30:59;;;;;;;1.70;1.60;;;;;;;;;;5376659;26;20363;-69
2024/04/12 13:33:26;;;;;;;2.00;1.85;;;;;;;;;;5388148;26;20014;-68
2024/04/12 13:35:53;;;;;;;2.38;2.17;;;;;;;;;;5367205;26;20007;-69
2024/04/12 13:38:20;;;;;;;2.30;1.70;;;;;;;;;;5381680;26;21146;-69
2024/04/12 13:40:49;;;;;;;2.42;1.70;;;;;;;;;;5379599;26;20007;-69
2024/04/12 13:43:17;;;;;;;2.65;2.08;;;;;;;;;;5386126;26;20008;-69
2024/04/12 13:51:20;;;;;;;4.55;2.20;;;;;;;;;;5380785;26;21586;-67
2024/04/12 13:53:50;;;;;;;12.27;2.13;;;;;;;;;;5382379;26;20014;-70
2024/04/12 13:56:25;;;;;;;1.80;1.70;;;;;;;;;;5381708;26;20007;-68
2024/04/12 13:58:55;;;;;;;6.82;2.08;;;;;;;;;;5381827;26;19999;-69
2024/04/12 14:01:26;;;;;;;2.58;1.90;;;;;;;;;;5375013;26;20000;-68
2024/04/12 14:03:53;;;;;;;3.42;2.15;;;;;;;;;;5378139;26;20754;-68
2024/04/12 14:06:25;;;;;;;2.35;2.00;;;;;;;;;;5369095;26;20000;-68
2024/04/12 14:08:55;;;;;;;4.35;2.00;;;;;;;;;;5368684;26;19999;-69
2024/04/12 14:11:22;;;;;;;3.50;2.38;;;;;;;;;;5363227;26;20111;-69
2024/04/12 14:13:49;;;;;;;2.85;1.80;;;;;;;;;;5370429;26;20363;-69
2024/04/12 14:16:19;;;;;;;2.38;2.00;;;;;;;;;;5378760;26;21291;-68
2024/04/12 14:18:50;;;;;;;5.07;2.13;;;;;;;;;;5382115;26;20440;-69
2024/04/12 14:21:16;;;;;;;9.52;2.65;;;;;;;;;;5369063;26;20047;-68
2024/04/12 14:23:44;;;;;;;3.08;1.60;;;;;;;;;;5375663;26;20074;-68
2024/04/12 14:26:10;;;;;;;5.38;2.13;;;;;;;;;;5382908;26;20491;-69
2024/04/12 14:28:38;;;;;;;2.70;2.03;;;;;;;;;;5388369;26;20260;-69
2024/04/12 14:31:06;;;;;;;2.55;1.85;;;;;;;;;;5374546;26;19992;-68
2024/04/12 14:33:32;;;;;;;4.10;1.95;;;;;;;;;;5371075;26;20619;-68
2024/04/12 14:36:02;;;;;;;8.20;2.15;;;;;;;;;;5377738;26;20804;-67
2024/04/12 14:38:29;;;;;;;3.15;1.77;;;;;;;;;;5358149;26;20323;-69
2024/04/12 14:41:07;;;;;;;8.90;2.20;;;;;;;;;;5373422;26;20007;-68
2024/04/12 14:43:33;;;;;;;8.27;2.35;;;;;;;;;;5399449;26;20000;-69
2024/04/12 14:46:05;;;;;;;2.13;1.65;;;;;;;;;;5375847;26;20673;-69
2024/04/12 14:48:32;;;;;;;5.90;2.30;;;;;;;;;;5417709;26;20022;-68
2024/04/12 14:50:58;;;;;;;2.55;1.88;;;;;;;;;;5378518;26;19996;-68
2024/04/12 14:53:25;;;;;;;4.78;2.05;;;;;;;;;;5378531;26;20080;-68
2024/04/12 14:55:51;;;;;;;4.05;2.05;;;;;;;;;;5389629;26;20007;-68
2024/04/12 14:58:20;;;;;;;4.05;2.35;;;;;;;;;;5379796;26;20016;-68
2024/04/12 15:00:48;;;;;;;4.22;2.00;;;;;;;;;;5365276;26;20356;-68
2024/04/12 15:49:48;;;;;;;12.90;2.53;;;;;;;;;;5346509;26;19997;-64
2024/04/12 15:52:16;;;;;;;2.92;2.13;;;;;;;;;;5370629;26;20023;-64
2024/04/12 15:54:51;;;;;;;3.33;2.08;;;;;;;;;;5341398;26;20547;-64
2024/04/12 16:11:03;;;;;;;3.33;2.13;;;;;;;;;;5350854;26;20018;-64
2024/04/12 16:13:30;;;;;;;3.95;2.10;;;;;;;;;;5348879;26;20425;-64
2024/04/12 16:15:57;;;;;;;6.53;2.38;;;;;;;;;;5342590;26;19993;-70
2024/04/12 16:18:23;;;;;;;4.10;2.25;;;;;;;;;;5345197;26;20001;-63
2024/04/12 16:20:50;;;;;;;5.65;2.38;;;;;;;;;;5349501;26;20004;-68
2024/04/12 16:23:21;;;;;;;8.93;2.45;;;;;;;;;;5356793;26;20057;-63
2024/04/12 16:25:48;;;;;;;3.28;2.10;;;;;;;;;;5347871;26;20337;-64
2024/04/12 16:28:19;;;;;;;8.30;3.17;;;;;;;;;;5353115;26;19992;-63
2024/04/12 16:30:46;;;;;;;7.28;2.28;;;;;;;;;;5377387;26;20005;-63
2024/04/12 16:33:13;;;;;;;8.98;2.65;;;;;;;;;;5348504;26;20461;-63
2024/04/12 16:35:40;;;;;;;4.68;2.45;;;;;;;;;;5357669;26;20012;-63
2024/04/12 16:38:07;;;;;;;4.47;2.20;;;;;;;;;;5358483;26;20093;-62
2024/04/12 16:40:33;;;;;;;5.28;2.60;;;;;;;;;;5365358;26;20080;-63
2024/04/12 16:43:06;;;;;;;13.25;2.85;;;;;;;;;;5345425;26;19996;-71
2024/04/12 16:45:33;;;;;;;6.00;2.83;;;;;;;;;;5353013;26;19996;-70
2024/04/12 16:47:59;;;;;;;2.42;2.13;;;;;;;;;;5354047;26;20057;-70
2024/04/12 16:50:29;;;;;;;5.88;2.20;;;;;;;;;;5351859;26;19997;-70
2024/04/12 16:52:56;;;;;;;9.05;2.15;;;;;;;;;;5349049;26;20019;-69
2024/04/12 16:55:26;;;;;;;5.75;2.20;;;;;;;;;;5358470;26;20019;-63
2024/04/12 16:57:52;;;;;;;5.97;2.33;;;;;;;;;;5357850;26;19996;-69
2024/04/12 17:00:19;;;;;;;3.95;2.10;;;;;;;;;;5346219;26;20024;-72
2024/04/12 17:02:46;;;;;;;5.75;2.78;;;;;;;;;;5339428;26;20005;-70
2024/04/12 17:05:14;;;;;;;5.25;2.47;;;;;;;;;;5354066;26;20447;-69
2024/04/12 17:07:40;;;;;;;9.60;3.17;;;;;;;;;;5343314;26;20340;-69
2024/04/12 17:10:08;;;;;;;7.72;2.55;;;;;;;;;;5348480;26;19996;-70
2024/04/12 17:12:35;;;;;;;7.22;3.58;;;;;;;;;;5342812;26;20004;-70
2024/04/12 17:15:03;;;;;;;5.80;2.70;;;;;;;;;;5355744;26;20001;-64
2024/04/12 17:17:36;;;;;;;8.13;2.50;;;;;;;;;;5356515;26;20009;-63
2024/04/12 17:20:05;;;;;;;2.20;1.75;;;;;;;;;;5354520;26;20016;-69